createdAt,value
2023-03-02T00:01:50.016Z,27.57
2023-03-02T00:04:26.824Z,27.20
2023-03-02T00:06:57.751Z,27.60
2023-03-02T00:09:25.112Z,24.43
2023-03-02T00:11:52.487Z,27.90
2023-03-02T00:14:20.043Z,25.33
2023-03-02T00:16:47.478Z,27.33
2023-03-02T00:19:14.992Z,29.50
2023-03-02T00:21:42.374Z,26.33
2023-03-02T00:24:10.193Z,27.90
2023-03-02T00:26:38.030Z,25.67
2023-03-02T00:29:05.610Z,24.10
2023-03-02T00:31:33.079Z,31.80
2023-03-02T00:34:00.525Z,27.27
2023-03-02T00:36:28.113Z,26.93
2023-03-02T00:38:55.509Z,26.20
2023-03-02T00:41:22.780Z,29.87
2023-03-02T00:43:50.621Z,27.13
2023-03-02T00:46:22.723Z,30.50
2023-03-02T00:48:50.519Z,28.97
2023-03-02T00:51:18.197Z,28.70
2023-03-02T00:53:45.557Z,27.47
2023-03-02T00:56:12.847Z,25.27
2023-03-02T00:58:40.646Z,25.40
2023-03-02T01:01:09.927Z,29.00
2023-03-02T01:03:37.398Z,26.43
2023-03-02T01:06:05.106Z,27.73
2023-03-02T01:08:32.552Z,25.90
2023-03-02T01:11:01.738Z,26.77
2023-03-02T01:13:29.275Z,26.23
2023-03-02T01:16:06.319Z,28.27
2023-03-02T01:18:35.270Z,27.10
2023-03-02T01:21:07.532Z,31.60
2023-03-02T01:23:34.815Z,24.50
2023-03-02T01:26:02.366Z,27.10
2023-03-02T01:28:29.732Z,28.17
2023-03-02T01:30:57.163Z,28.47
2023-03-02T01:33:24.647Z,26.40
2023-03-02T01:35:52.177Z,28.70
2023-03-02T01:38:19.476Z,30.57
2023-03-02T01:40:46.850Z,26.70
2023-03-02T01:43:15.646Z,26.97
2023-03-02T01:45:49.386Z,25.90
2023-03-02T01:48:19.310Z,31.30
2023-03-02T01:50:46.888Z,29.07
2023-03-02T01:53:15.040Z,26.73
2023-03-02T01:55:44.336Z,26.30
2023-03-02T01:58:12.769Z,25.50
2023-03-02T02:00:39.957Z,27.50
2023-03-02T02:03:11.390Z,26.77
2023-03-02T02:05:40.255Z,26.23
2023-03-02T02:08:07.940Z,30.57
2023-03-02T02:10:36.943Z,26.43
2023-03-02T02:13:04.499Z,26.10
2023-03-02T02:15:31.998Z,27.27
2023-03-02T02:17:59.448Z,25.93
2023-03-02T02:20:38.064Z,26.27
2023-03-02T02:23:17.774Z,28.77
2023-03-02T02:25:55.740Z,26.03
2023-03-02T02:28:29.483Z,26.10
2023-03-02T02:31:21.443Z,28.20
2023-03-02T02:33:51.428Z,26.60
2023-03-02T02:36:34.011Z,30.63
2023-03-02T02:39:03.958Z,27.03
2023-03-02T02:41:34.483Z,26.03
2023-03-02T02:44:01.989Z,24.37
2023-03-02T02:46:29.431Z,25.40
2023-03-02T02:48:56.977Z,27.03
2023-03-02T02:51:27.224Z,30.97
2023-03-02T02:54:02.191Z,28.73
2023-03-02T02:56:39.153Z,25.70
2023-03-02T02:59:21.742Z,26.13
2023-03-02T03:01:49.163Z,28.47
2023-03-02T03:04:23.460Z,23.30
2023-03-02T03:06:55.902Z,35.80
2023-03-02T03:09:23.423Z,26.07
2023-03-02T03:12:04.665Z,26.50
2023-03-02T03:14:35.344Z,23.53
2023-03-02T03:17:02.902Z,25.43
2023-03-02T03:19:33.291Z,30.13
2023-03-02T03:22:01.841Z,26.30
2023-03-02T03:24:30.394Z,25.33
2023-03-02T03:26:57.719Z,28.67
2023-03-02T03:29:25.958Z,27.07
2023-03-02T03:31:54.355Z,26.10
2023-03-02T03:34:21.894Z,22.40
2023-03-02T03:36:49.297Z,26.47
2023-03-02T03:39:16.940Z,28.10
2023-03-02T03:41:44.645Z,22.80
2023-03-02T03:44:12.129Z,25.50
2023-03-02T03:46:39.763Z,27.03
2023-03-02T03:49:07.018Z,22.60
2023-03-02T03:51:35.730Z,22.43
2023-03-02T03:54:04.253Z,26.67
2023-03-02T03:56:36.420Z,29.03
2023-03-02T03:59:07.957Z,28.53
2023-03-02T04:01:45.784Z,30.60
2023-03-02T04:04:15.191Z,25.43
2023-03-02T04:06:42.665Z,32.57
2023-03-02T04:09:10.104Z,29.23
2023-03-02T04:11:39.389Z,25.97
2023-03-02T04:14:07.240Z,27.17
2023-03-02T04:16:35.098Z,24.03
2023-03-02T04:19:02.829Z,31.40
2023-03-02T04:21:30.490Z,27.83
2023-03-02T04:23:57.904Z,30.00
2023-03-02T04:26:27.135Z,29.70
2023-03-02T04:28:54.602Z,28.93
2023-03-02T04:31:22.091Z,28.03
2023-03-02T04:33:49.713Z,34.90
2023-03-02T04:36:17.309Z,28.70
2023-03-02T04:38:44.790Z,30.23
2023-03-02T04:41:12.153Z,28.07
2023-03-02T04:43:39.467Z,32.40
2023-03-02T04:46:07.216Z,26.33
2023-03-02T04:48:34.475Z,37.03
2023-03-02T04:51:01.827Z,29.07
2023-03-02T04:53:29.114Z,28.60
2023-03-02T04:55:56.534Z,31.43
2023-03-02T04:58:24.020Z,28.03
2023-03-02T05:00:51.428Z,31.17
2023-03-02T05:03:18.896Z,26.90
2023-03-02T05:05:46.269Z,29.37
2023-03-02T05:08:15.103Z,30.37
2023-03-02T05:10:42.478Z,25.43
2023-03-02T05:13:10.038Z,26.40
2023-03-02T05:15:40.888Z,25.73
2023-03-02T05:18:09.523Z,30.37
2023-03-02T05:20:36.934Z,27.93
2023-03-02T05:23:07.005Z,26.27
2023-03-02T05:25:35.933Z,27.77
2023-03-02T05:28:03.554Z,33.30
2023-03-02T05:30:32.893Z,27.97
2023-03-02T05:33:00.357Z,27.13
2023-03-02T05:35:27.764Z,27.30
2023-03-02T05:37:55.078Z,23.47
2023-03-02T05:40:22.367Z,35.83
2023-03-02T05:42:50.942Z,26.93
2023-03-02T05:45:29.624Z,24.70
2023-03-02T05:47:56.830Z,30.20
2023-03-02T05:50:24.313Z,30.60
2023-03-02T05:52:51.841Z,28.60
2023-03-02T05:55:19.417Z,28.87
2023-03-02T05:57:47.019Z,72.20
2023-03-02T06:00:15.002Z,43.17
2023-03-02T06:02:42.533Z,40.50
2023-03-02T06:05:15.179Z,25.40
2023-03-02T06:07:42.637Z,30.47
2023-03-02T06:10:10.824Z,30.37
2023-03-02T06:12:38.193Z,37.80
2023-03-02T06:15:06.991Z,31.83
2023-03-02T06:17:34.388Z,34.83
2023-03-02T06:20:01.984Z,29.30
2023-03-02T06:22:29.466Z,35.30
2023-03-02T06:24:56.697Z,28.90
2023-03-02T06:27:24.024Z,28.40
2023-03-02T06:29:51.472Z,34.97
2023-03-02T06:32:18.768Z,32.83
2023-03-02T06:34:46.074Z,28.60
2023-03-02T06:37:13.410Z,32.40
2023-03-02T06:39:40.745Z,33.20
2023-03-02T06:42:08.122Z,32.93
2023-03-02T06:44:35.586Z,29.90
2023-03-02T06:47:03.037Z,28.37
2023-03-02T06:49:30.534Z,35.47
2023-03-02T06:51:57.810Z,33.80
2023-03-02T06:54:25.274Z,34.70
2023-03-02T06:56:52.686Z,33.93
2023-03-02T06:59:20.042Z,36.83
2023-03-02T07:01:49.658Z,32.37
2023-03-02T07:04:16.881Z,45.30
2023-03-02T07:06:44.211Z,106.47
2023-03-02T07:09:11.571Z,36.00
2023-03-02T07:11:39.077Z,72.93
2023-03-02T07:14:06.383Z,40.67
2023-03-02T07:16:34.127Z,42.87
2023-03-02T07:19:01.828Z,35.40
2023-03-02T07:21:29.294Z,39.27
2023-03-02T07:23:56.721Z,33.60
2023-03-02T07:26:24.208Z,43.17
2023-03-02T07:28:51.424Z,34.17
2023-03-02T07:31:18.739Z,30.87
2023-03-02T07:33:46.064Z,36.67
2023-03-02T07:36:13.509Z,36.27
2023-03-02T07:38:41.105Z,38.03
2023-03-02T07:41:12.688Z,35.30
2023-03-02T07:43:40.134Z,42.00
2023-03-02T07:46:07.581Z,30.40
2023-03-02T07:48:35.095Z,34.50
2023-03-02T07:51:02.935Z,41.97
2023-03-02T07:53:30.449Z,47.27
2023-03-02T07:55:57.771Z,40.37
2023-03-02T07:58:24.911Z,49.00
2023-03-02T08:00:52.290Z,40.60
2023-03-02T08:03:19.653Z,40.07
2023-03-02T08:05:46.941Z,33.77
2023-03-02T08:08:14.295Z,30.37
2023-03-02T08:10:41.609Z,43.10
2023-03-02T08:13:09.094Z,51.93
2023-03-02T08:15:36.241Z,38.23
2023-03-02T08:18:03.912Z,46.10
2023-03-02T08:20:31.047Z,31.33
2023-03-02T08:22:58.452Z,27.53
2023-03-02T08:25:25.646Z,26.03
2023-03-02T08:27:53.018Z,23.50
2023-03-02T08:30:20.632Z,25.97
2023-03-02T08:32:48.316Z,24.67
2023-03-02T08:35:15.642Z,32.57
2023-03-02T08:37:42.800Z,34.83
2023-03-02T08:40:10.762Z,29.50
2023-03-02T08:42:38.125Z,25.43
2023-03-02T08:45:06.070Z,23.77
2023-03-02T08:47:33.581Z,28.77
2023-03-02T08:50:00.982Z,23.20
2023-03-02T08:52:28.384Z,58.63
2023-03-02T08:54:55.892Z,65.47
2023-03-02T08:57:23.349Z,24.83
2023-03-02T08:59:52.623Z,28.87
2023-03-02T09:02:19.988Z,25.10
2023-03-02T09:04:47.202Z,21.87
2023-03-02T09:07:17.643Z,36.63
2023-03-02T09:09:45.310Z,25.83
2023-03-02T09:12:12.481Z,24.37
2023-03-02T09:14:39.893Z,15.20
2023-03-02T09:17:07.084Z,35.60
2023-03-02T09:19:44.188Z,28.70
2023-03-02T09:22:12.212Z,54.70
2023-03-02T09:24:39.335Z,28.53
2023-03-02T09:27:06.465Z,44.97
2023-03-02T09:29:33.780Z,13.07
2023-03-02T09:32:01.049Z,12.10
2023-03-02T09:34:28.609Z,15.57
2023-03-02T09:36:55.866Z,24.87
2023-03-02T09:39:23.229Z,22.17
2023-03-02T09:42:25.451Z,30.03
2023-03-02T09:45:19.339Z,11.83
2023-03-02T09:48:00.679Z,12.33
2023-03-02T09:50:40.300Z,50.93
2023-03-02T09:53:21.654Z,10.83
2023-03-02T09:55:54.050Z,35.33
2023-03-02T09:58:21.856Z,44.03
2023-03-02T10:00:49.125Z,55.57
2023-03-02T10:03:24.248Z,12.33
2023-03-02T10:05:52.522Z,16.47
2023-03-02T10:08:22.431Z,9.40
2023-03-02T10:10:54.921Z,13.87
2023-03-02T10:13:45.039Z,13.63
2023-03-02T10:16:28.704Z,10.07
2023-03-02T10:19:19.499Z,12.13
2023-03-02T10:21:48.264Z,24.17
2023-03-02T10:24:39.591Z,19.00
2023-03-02T10:27:28.264Z,14.33
2023-03-02T10:30:02.108Z,44.50
2023-03-02T10:32:33.632Z,16.93
2023-03-02T10:35:01.970Z,47.77
2023-03-02T10:37:30.174Z,17.37
2023-03-02T10:39:57.758Z,8.57
2023-03-02T10:42:25.089Z,24.40
2023-03-02T10:44:57.245Z,18.67
2023-03-02T10:47:26.296Z,27.40
2023-03-02T10:49:54.605Z,17.87
2023-03-02T10:52:23.618Z,9.77
2023-03-02T10:54:52.965Z,39.03
2023-03-02T10:57:26.336Z,7.80
2023-03-02T10:59:53.725Z,7.80
2023-03-02T11:02:23.786Z,13.47
2023-03-02T11:04:59.346Z,7.27
2023-03-02T11:07:28.412Z,15.03
2023-03-02T11:10:20.115Z,13.17
2023-03-02T11:12:48.927Z,18.10
2023-03-02T11:15:23.645Z,11.77
2023-03-02T11:18:27.977Z,13.23
2023-03-02T11:21:06.305Z,11.47
2023-03-02T11:23:40.018Z,15.80
2023-03-02T11:26:15.256Z,15.83
2023-03-02T11:29:06.173Z,9.10
2023-03-02T11:31:42.159Z,11.80
2023-03-02T11:34:31.854Z,10.90
2023-03-02T11:37:37.929Z,10.40
2023-03-02T11:40:31.256Z,9.90
2023-03-02T11:43:00.085Z,9.50
2023-03-02T11:45:37.728Z,14.77
2023-03-02T11:48:09.388Z,20.30
2023-03-02T11:51:07.038Z,14.93
2023-03-02T11:53:49.994Z,9.50
2023-03-02T11:56:17.471Z,11.00
2023-03-02T11:58:45.357Z,11.17
2023-03-02T12:01:18.840Z,10.20
2023-03-02T12:03:46.251Z,9.37
2023-03-02T12:06:22.689Z,9.80
2023-03-02T12:08:55.063Z,11.10
2023-03-02T12:11:22.455Z,8.00
2023-03-02T12:13:50.227Z,10.63
2023-03-02T12:16:41.347Z,9.77
2023-03-02T12:19:41.822Z,6.63
2023-03-02T12:22:12.513Z,14.23
2023-03-02T12:24:41.822Z,11.77
2023-03-02T12:27:21.149Z,10.70
2023-03-02T12:30:11.463Z,20.30
2023-03-02T12:32:38.847Z,13.60
2023-03-02T12:35:09.440Z,10.23
2023-03-02T12:37:48.808Z,13.23
2023-03-02T12:40:26.482Z,12.53
2023-03-02T12:43:29.637Z,19.77
2023-03-02T12:46:23.985Z,10.63
2023-03-02T12:49:06.830Z,7.67
2023-03-02T12:51:51.936Z,17.80
2023-03-02T12:54:29.934Z,9.77
2023-03-02T12:57:09.188Z,25.23
2023-03-02T12:59:37.435Z,10.43
2023-03-02T13:02:18.955Z,10.57
2023-03-02T13:04:53.998Z,11.40
2023-03-02T13:07:24.931Z,10.30
2023-03-02T13:09:56.552Z,14.50
2023-03-02T13:12:29.289Z,9.73
2023-03-02T13:14:58.416Z,9.30
2023-03-02T13:17:33.797Z,8.30
2023-03-02T13:20:02.044Z,7.80
2023-03-02T13:22:29.570Z,11.03
2023-03-02T13:25:00.673Z,17.20
2023-03-02T13:27:28.073Z,7.67
2023-03-02T13:29:57.470Z,9.60
2023-03-02T13:32:35.935Z,9.00
2023-03-02T13:35:03.729Z,17.43
2023-03-02T13:37:40.523Z,18.03
2023-03-02T13:40:27.467Z,10.40
2023-03-02T13:42:55.329Z,13.50
2023-03-02T13:45:25.585Z,8.73
2023-03-02T13:47:53.962Z,11.83
2023-03-02T13:50:29.684Z,14.30
2023-03-02T13:53:04.474Z,9.37
2023-03-02T13:55:32.027Z,15.73
2023-03-02T13:57:59.243Z,8.17
2023-03-02T14:00:33.328Z,9.30
2023-03-02T14:03:00.628Z,11.33
2023-03-02T14:05:33.648Z,7.53
2023-03-02T14:08:01.361Z,6.67
2023-03-02T14:10:28.651Z,8.90
2023-03-02T14:13:01.296Z,10.33
2023-03-02T14:15:28.770Z,14.83
2023-03-02T14:17:56.226Z,13.53
2023-03-02T14:20:23.602Z,6.63
2023-03-02T14:22:51.203Z,17.53
2023-03-02T14:25:19.680Z,10.07
2023-03-02T14:27:47.718Z,15.17
2023-03-02T14:30:19.829Z,11.37
2023-03-02T14:32:48.324Z,9.73
2023-03-02T14:35:16.727Z,6.80
2023-03-02T14:37:48.747Z,11.40
2023-03-02T14:40:25.746Z,16.50
2023-03-02T14:42:53.601Z,7.87
2023-03-02T14:45:21.577Z,8.63
2023-03-02T14:47:49.196Z,11.47
2023-03-02T14:50:19.540Z,16.90
2023-03-02T14:52:57.868Z,21.20
2023-03-02T14:55:31.668Z,13.70
2023-03-02T14:58:00.957Z,13.60
2023-03-02T15:00:28.217Z,19.30
2023-03-02T15:02:55.734Z,10.83
2023-03-02T15:05:23.282Z,13.27
2023-03-02T15:07:50.780Z,21.10
2023-03-02T15:10:20.176Z,14.90
2023-03-02T15:12:47.415Z,17.63
2023-03-02T15:15:14.881Z,14.03
2023-03-02T15:17:42.117Z,20.10
2023-03-02T15:20:14.848Z,12.33
2023-03-02T15:22:42.524Z,17.97
2023-03-02T15:25:10.353Z,15.47
2023-03-02T15:27:37.688Z,14.77
2023-03-02T15:30:05.887Z,18.97
2023-03-02T15:32:33.388Z,24.97
2023-03-02T15:35:01.245Z,13.73
2023-03-02T15:37:28.731Z,23.33
2023-03-02T15:39:56.706Z,15.13
2023-03-02T15:42:24.591Z,8.83
2023-03-02T15:44:51.968Z,15.93
2023-03-02T15:47:19.585Z,10.07
2023-03-02T15:49:47.120Z,17.63
2023-03-02T15:52:14.380Z,17.57
2023-03-02T15:54:41.919Z,21.23
2023-03-02T15:57:10.554Z,11.53
2023-03-02T15:59:37.883Z,10.43
2023-03-02T16:02:05.414Z,11.43
2023-03-02T16:04:33.638Z,17.47
2023-03-02T16:07:01.468Z,11.03
2023-03-02T16:09:33.129Z,18.73
2023-03-02T16:12:00.593Z,29.37
2023-03-02T16:14:28.025Z,11.83
2023-03-02T16:16:55.450Z,20.73
2023-03-02T16:19:22.938Z,12.50
2023-03-02T16:21:50.274Z,12.70
2023-03-02T16:24:17.757Z,12.27
2023-03-02T16:26:45.357Z,11.63
2023-03-02T16:29:13.418Z,12.50
2023-03-02T16:31:40.997Z,13.93
2023-03-02T16:34:09.141Z,8.13
2023-03-02T16:36:37.332Z,10.83
2023-03-02T16:39:05.037Z,11.50
2023-03-02T16:41:32.365Z,14.90
2023-03-02T16:44:00.273Z,12.70
2023-03-02T16:46:29.137Z,13.13
2023-03-02T16:48:56.929Z,8.33
2023-03-02T16:51:24.244Z,15.93
2023-03-02T16:53:51.537Z,10.37
2023-03-02T16:56:18.783Z,10.47
2023-03-02T16:58:46.100Z,14.07
2023-03-02T17:01:18.843Z,10.20
2023-03-02T17:03:46.479Z,12.07
2023-03-02T17:06:14.775Z,11.47
2023-03-02T17:08:42.494Z,12.63
2023-03-02T17:11:10.496Z,9.87
2023-03-02T17:13:37.835Z,12.53
2023-03-02T17:16:05.932Z,13.80
2023-03-02T17:18:37.107Z,14.10
2023-03-02T17:21:05.025Z,19.43
2023-03-02T17:23:32.284Z,15.87
2023-03-02T17:25:59.660Z,18.10
2023-03-02T17:28:27.243Z,16.90
2023-03-02T17:30:54.752Z,15.47
2023-03-02T17:33:23.312Z,15.60
2023-03-02T17:35:50.625Z,32.43
2023-03-02T17:38:17.910Z,25.97
2023-03-02T17:40:45.176Z,24.93
2023-03-02T17:43:13.075Z,19.43
2023-03-02T17:45:40.312Z,13.67
2023-03-02T17:48:07.871Z,20.20
2023-03-02T17:50:35.336Z,23.87
2023-03-02T17:53:03.280Z,16.80
2023-03-02T17:55:30.856Z,17.13
2023-03-02T17:57:58.225Z,19.90
2023-03-02T18:00:25.814Z,17.53
2023-03-02T18:02:53.276Z,18.50
2023-03-02T18:05:21.852Z,19.77
2023-03-02T18:07:49.347Z,23.93
2023-03-02T18:10:16.798Z,20.50
2023-03-02T18:12:44.260Z,21.93
2023-03-02T18:15:12.678Z,34.23
2023-03-02T18:17:40.147Z,31.57
2023-03-02T18:20:08.191Z,24.20
2023-03-02T18:22:35.475Z,37.03
2023-03-02T18:25:02.887Z,69.23
2023-03-02T18:27:30.183Z,30.53
2023-03-02T18:29:57.576Z,23.27
2023-03-02T18:32:25.105Z,18.93
2023-03-02T18:34:52.641Z,21.77
2023-03-02T18:37:19.808Z,21.90
2023-03-02T18:39:47.034Z,23.23
2023-03-02T18:42:14.360Z,25.67
2023-03-02T18:44:41.746Z,29.57
2023-03-02T18:47:10.426Z,33.03
2023-03-02T18:49:38.649Z,26.67
2023-03-02T18:52:07.154Z,25.77
2023-03-02T18:54:34.463Z,33.57
2023-03-02T18:57:02.749Z,21.77
2023-03-02T18:59:30.074Z,17.17
2023-03-02T19:01:57.975Z,18.40
2023-03-02T19:04:26.881Z,18.17
2023-03-02T19:06:56.458Z,22.83
2023-03-02T19:09:24.316Z,20.93
2023-03-02T19:11:51.749Z,18.53
2023-03-02T19:14:19.219Z,16.93
2023-03-02T19:16:46.900Z,17.87
2023-03-02T19:19:14.550Z,16.13
2023-03-02T19:21:41.991Z,16.27
2023-03-02T19:24:09.535Z,17.47
2023-03-02T19:26:37.186Z,27.10
2023-03-02T19:29:05.042Z,20.67
2023-03-02T19:31:33.223Z,23.83
2023-03-02T19:34:00.710Z,27.83
2023-03-02T19:36:28.302Z,24.40
2023-03-02T19:38:55.686Z,35.20
2023-03-02T19:41:23.604Z,33.93
2023-03-02T19:43:51.143Z,28.47
2023-03-02T19:46:18.536Z,31.73
2023-03-02T19:48:46.051Z,35.23
2023-03-02T19:51:13.904Z,33.57
2023-03-02T19:53:41.697Z,38.70
2023-03-02T19:56:12.953Z,52.00
2023-03-02T19:58:47.488Z,59.63
2023-03-02T20:01:17.506Z,27.47
2023-03-02T20:03:46.656Z,26.67
2023-03-02T20:06:14.096Z,21.67
2023-03-02T20:08:41.278Z,16.57
2023-03-02T20:11:08.495Z,15.20
2023-03-02T20:13:36.172Z,17.17
2023-03-02T20:16:03.862Z,21.10
2023-03-02T20:18:31.236Z,16.57
2023-03-02T20:20:58.589Z,14.27
2023-03-02T20:23:26.266Z,20.73
2023-03-02T20:25:53.605Z,11.83
2023-03-02T20:28:23.112Z,10.30
2023-03-02T20:30:54.014Z,11.00
2023-03-02T20:33:23.225Z,17.83
2023-03-02T20:35:50.936Z,15.53
2023-03-02T20:38:22.464Z,13.40
2023-03-02T20:40:49.671Z,17.67
2023-03-02T20:43:17.484Z,14.83
2023-03-02T20:45:45.001Z,17.93
2023-03-02T20:48:12.585Z,19.23
2023-03-02T20:50:39.794Z,15.90
2023-03-02T20:53:07.537Z,18.23
2023-03-02T20:55:35.808Z,18.63
2023-03-02T20:58:05.629Z,13.80
2023-03-02T21:00:33.320Z,21.10
2023-03-02T21:03:00.500Z,14.73
2023-03-02T21:05:27.878Z,12.67
2023-03-02T21:07:55.566Z,20.20
2023-03-02T21:10:31.505Z,25.00
2023-03-02T21:12:59.306Z,13.67
2023-03-02T21:15:28.032Z,15.07
2023-03-02T21:17:56.232Z,12.30
2023-03-02T21:20:24.637Z,15.50
2023-03-02T21:22:51.982Z,14.13
2023-03-02T21:25:19.632Z,15.87
2023-03-02T21:27:48.199Z,15.83
2023-03-02T21:30:20.037Z,13.37
2023-03-02T21:32:48.554Z,14.10
2023-03-02T21:35:18.019Z,11.60
2023-03-02T21:37:45.435Z,15.93
2023-03-02T21:40:18.537Z,15.70
2023-03-02T21:42:46.016Z,22.07
2023-03-02T21:45:13.326Z,11.63
2023-03-02T21:47:43.895Z,13.27
2023-03-02T21:50:14.003Z,20.00
2023-03-02T21:52:41.533Z,14.17
2023-03-02T21:55:09.388Z,15.63
2023-03-02T21:57:36.625Z,12.47
2023-03-02T22:00:05.810Z,10.10
2023-03-02T22:02:33.199Z,15.03
2023-03-02T22:05:00.832Z,16.93
2023-03-02T22:07:28.304Z,15.77
2023-03-02T22:09:55.679Z,16.27
2023-03-02T22:12:23.201Z,14.77
2023-03-02T22:14:51.758Z,11.67
2023-03-02T22:17:20.963Z,21.63
2023-03-02T22:19:48.800Z,12.03
2023-03-02T22:22:27.262Z,15.33
2023-03-02T22:24:55.035Z,14.93
2023-03-02T22:27:23.722Z,13.47
2023-03-02T22:29:52.540Z,15.93
2023-03-02T22:32:27.777Z,11.90
2023-03-02T22:34:59.883Z,19.57
2023-03-02T22:37:28.150Z,11.87
2023-03-02T22:39:57.160Z,18.50
2023-03-02T22:42:25.978Z,14.30
2023-03-02T22:45:02.570Z,13.27
2023-03-02T22:47:29.905Z,12.60
2023-03-02T22:49:59.138Z,15.70
2023-03-02T22:52:28.308Z,12.97
2023-03-02T22:54:55.597Z,13.77
2023-03-02T22:57:32.215Z,15.53
2023-03-02T23:00:11.759Z,17.53
2023-03-02T23:02:42.360Z,13.23
2023-03-02T23:05:30.558Z,13.87
2023-03-02T23:08:25.303Z,15.80
2023-03-02T23:10:58.001Z,15.27
2023-03-02T23:13:27.459Z,18.70
2023-03-02T23:15:54.966Z,15.23
2023-03-02T23:18:23.359Z,12.27
2023-03-02T23:20:51.182Z,16.20
2023-03-02T23:23:18.806Z,13.80
2023-03-02T23:25:46.666Z,17.97
2023-03-02T23:28:14.305Z,17.20
2023-03-02T23:30:41.763Z,15.03
2023-03-02T23:33:09.221Z,16.50
2023-03-02T23:35:36.598Z,13.53
2023-03-02T23:38:04.006Z,14.37
2023-03-02T23:40:31.440Z,13.07
2023-03-02T23:42:59.030Z,14.37
2023-03-02T23:45:26.777Z,14.67
2023-03-02T23:47:54.137Z,12.63
2023-03-02T23:50:21.471Z,12.10
2023-03-02T23:52:49.425Z,11.77
2023-03-02T23:55:16.973Z,14.30
2023-03-02T23:57:44.462Z,11.87
